createdAt,value
2022-09-06T00:00:07.347Z,7.00
2022-09-06T00:02:35.207Z,7.43
2022-09-06T00:05:02.287Z,8.00
2022-09-06T00:07:29.037Z,7.30
2022-09-06T00:09:57.280Z,7.10
2022-09-06T00:12:25.375Z,7.60
2022-09-06T00:14:52.206Z,7.50
2022-09-06T00:17:19.455Z,6.77
2022-09-06T00:19:46.315Z,7.37
2022-09-06T00:22:13.053Z,7.73
2022-09-06T00:24:39.849Z,7.20
2022-09-06T00:27:07.587Z,7.57
2022-09-06T00:29:34.411Z,7.57
2022-09-06T00:32:01.310Z,7.13
2022-09-06T00:34:28.442Z,7.13
2022-09-06T00:36:55.474Z,8.00
2022-09-06T00:39:22.280Z,8.00
2022-09-06T00:41:49.337Z,6.80
2022-09-06T00:44:16.114Z,7.63
2022-09-06T00:46:46.142Z,7.33
2022-09-06T00:49:24.208Z,7.00
2022-09-06T00:51:58.340Z,8.17
2022-09-06T00:54:25.896Z,7.93
2022-09-06T00:56:52.910Z,7.30
2022-09-06T00:59:19.751Z,8.33
2022-09-06T01:01:46.782Z,7.93
2022-09-06T01:04:13.803Z,7.07
2022-09-06T01:07:06.450Z,7.60
2022-09-06T01:09:56.964Z,6.90
2022-09-06T01:12:28.082Z,7.93
2022-09-06T01:15:09.859Z,7.27
2022-09-06T01:17:59.991Z,8.03
2022-09-06T01:20:52.631Z,14.70
2022-09-06T01:23:34.369Z,7.93
2022-09-06T01:26:29.281Z,7.83
2022-09-06T01:28:56.360Z,7.87
2022-09-06T01:31:38.195Z,8.40
2022-09-06T01:34:14.876Z,7.57
2022-09-06T01:37:13.460Z,7.60
2022-09-06T01:39:41.977Z,7.90
2022-09-06T01:42:16.586Z,7.97
2022-09-06T01:44:48.229Z,7.93
2022-09-06T01:47:14.935Z,7.97
2022-09-06T01:49:56.704Z,8.10
2022-09-06T01:52:42.424Z,8.20
2022-09-06T01:55:27.848Z,8.00
2022-09-06T01:57:57.500Z,7.53
2022-09-06T02:00:25.324Z,8.13
2022-09-06T02:03:14.058Z,7.63
2022-09-06T02:05:51.055Z,9.17
2022-09-06T02:08:24.879Z,8.57
2022-09-06T02:11:02.337Z,7.40
2022-09-06T02:13:45.419Z,9.27
2022-09-06T02:16:16.187Z,7.43
2022-09-06T02:19:18.061Z,8.57
2022-09-06T02:21:47.470Z,13.47
2022-09-06T02:24:23.015Z,8.73
2022-09-06T02:26:50.562Z,8.73
2022-09-06T02:29:18.567Z,9.00
2022-09-06T02:31:56.945Z,8.67
2022-09-06T02:34:23.710Z,8.17
2022-09-06T02:36:50.630Z,9.53
2022-09-06T02:39:17.483Z,8.57
2022-09-06T02:41:46.255Z,8.53
2022-09-06T02:44:13.015Z,8.67
2022-09-06T02:46:39.961Z,9.07
2022-09-06T02:49:06.895Z,8.27
2022-09-06T02:51:38.569Z,8.53
2022-09-06T02:54:06.228Z,8.17
2022-09-06T02:56:33.799Z,8.43
2022-09-06T02:59:00.752Z,8.70
2022-09-06T03:01:27.912Z,9.00
2022-09-06T03:03:54.677Z,8.90
2022-09-06T03:06:21.467Z,7.43
2022-09-06T03:08:48.384Z,8.43
2022-09-06T03:11:15.390Z,8.07
2022-09-06T03:13:42.194Z,8.13
2022-09-06T03:16:09.104Z,7.93
2022-09-06T03:18:35.865Z,8.30
2022-09-06T03:21:03.206Z,9.50
2022-09-06T03:23:30.225Z,8.53
2022-09-06T03:25:57.228Z,10.60
2022-09-06T03:28:24.462Z,8.53
2022-09-06T03:30:52.169Z,8.20
2022-09-06T03:33:20.432Z,8.43
2022-09-06T03:35:56.424Z,9.10
2022-09-06T03:38:23.939Z,8.27
2022-09-06T03:40:52.777Z,9.93
2022-09-06T03:43:20.936Z,8.53
2022-09-06T03:45:57.709Z,8.37
2022-09-06T03:48:27.922Z,9.23
2022-09-06T03:50:57.149Z,9.10
2022-09-06T03:53:25.608Z,8.40
2022-09-06T03:55:54.545Z,9.80
2022-09-06T03:58:23.097Z,9.00
2022-09-06T04:00:59.313Z,8.67
2022-09-06T04:03:26.103Z,8.93
2022-09-06T04:05:52.834Z,9.20
2022-09-06T04:08:19.686Z,9.20
2022-09-06T04:10:50.962Z,9.87
2022-09-06T04:13:18.185Z,8.63
2022-09-06T04:15:48.516Z,8.13
2022-09-06T04:18:16.160Z,9.33
2022-09-06T04:20:43.279Z,9.37
2022-09-06T04:23:10.036Z,9.57
2022-09-06T04:25:36.942Z,9.70
2022-09-06T04:28:03.771Z,8.77
2022-09-06T04:30:30.579Z,9.43
2022-09-06T04:32:57.415Z,9.00
2022-09-06T04:35:24.235Z,10.27
2022-09-06T04:37:51.013Z,8.80
2022-09-06T04:40:17.849Z,9.30
2022-09-06T04:42:44.577Z,8.80
2022-09-06T04:45:12.021Z,9.27
2022-09-06T04:47:38.771Z,8.80
2022-09-06T04:50:06.376Z,9.50
2022-09-06T04:52:33.112Z,9.87
2022-09-06T04:54:59.835Z,9.97
2022-09-06T04:57:26.684Z,9.00
2022-09-06T04:59:53.568Z,9.43
2022-09-06T05:02:20.364Z,9.00
2022-09-06T05:04:47.237Z,8.73
2022-09-06T05:07:13.975Z,9.10
2022-09-06T05:09:40.697Z,8.50
2022-09-06T05:12:07.907Z,8.20
2022-09-06T05:14:34.921Z,9.63
2022-09-06T05:17:01.732Z,9.50
2022-09-06T05:19:28.461Z,9.77
2022-09-06T05:21:55.365Z,9.23
2022-09-06T05:24:22.173Z,9.00
2022-09-06T05:26:48.931Z,8.97
2022-09-06T05:29:15.690Z,8.93
2022-09-06T05:31:42.646Z,8.27
2022-09-06T05:34:10.506Z,8.40
2022-09-06T05:36:38.751Z,8.93
2022-09-06T05:39:05.534Z,10.00
2022-09-06T05:41:33.740Z,9.63
2022-09-06T05:44:00.526Z,9.40
2022-09-06T05:46:27.259Z,9.10
2022-09-06T05:48:56.058Z,8.47
2022-09-06T05:51:22.874Z,9.47
2022-09-06T05:53:49.847Z,9.80
2022-09-06T05:56:17.323Z,8.90
2022-09-06T05:58:44.262Z,8.77
2022-09-06T06:01:30.159Z,8.80
2022-09-06T06:04:00.321Z,8.80
2022-09-06T06:06:29.575Z,9.90
2022-09-06T06:08:56.545Z,8.33
2022-09-06T06:11:24.918Z,10.57
2022-09-06T06:13:52.369Z,10.60
2022-09-06T06:16:21.004Z,11.63
2022-09-06T06:18:51.926Z,10.43
2022-09-06T06:21:23.764Z,11.90
2022-09-06T06:23:53.047Z,12.80
2022-09-06T06:26:20.424Z,12.53
2022-09-06T06:28:47.241Z,11.60
2022-09-06T06:31:15.313Z,11.83
2022-09-06T06:33:42.611Z,13.90
2022-09-06T06:36:15.158Z,14.63
2022-09-06T06:38:43.766Z,12.60
2022-09-06T06:41:13.313Z,12.23
2022-09-06T06:43:40.528Z,11.20
2022-09-06T06:46:09.577Z,11.50
2022-09-06T06:48:37.488Z,10.40
2022-09-06T06:51:04.301Z,9.40
2022-09-06T06:53:31.087Z,12.57
2022-09-06T06:55:57.854Z,13.97
2022-09-06T06:58:24.646Z,13.53
2022-09-06T07:00:51.733Z,12.23
2022-09-06T07:03:18.895Z,11.50
2022-09-06T07:08:34.516Z,10.57
2022-09-06T07:11:02.114Z,8.90
2022-09-06T07:13:28.930Z,10.30
2022-09-06T07:16:08.897Z,11.37
2022-09-06T07:18:37.714Z,11.57
2022-09-06T07:24:07.648Z,12.87
2022-09-06T07:26:36.616Z,10.60
2022-09-06T07:29:04.842Z,11.07
2022-09-06T07:34:20.522Z,7.77
2022-09-06T07:36:48.229Z,7.23
2022-09-06T07:39:15.030Z,8.20
2022-09-06T07:41:43.317Z,8.63
2022-09-06T07:44:10.583Z,6.47
2022-09-06T07:46:37.500Z,7.97
2022-09-06T07:49:05.511Z,7.80
2022-09-06T07:51:32.766Z,8.50
2022-09-06T07:54:26.376Z,6.68
2022-09-06T07:56:47.259Z,8.60
2022-09-06T07:59:14.318Z,7.35
2022-09-06T08:01:41.668Z,5.68
2022-09-06T08:04:10.462Z,6.43
2022-09-06T08:09:26.047Z,6.00
2022-09-06T08:11:53.203Z,7.07
2022-09-06T08:14:20.639Z,5.60
2022-09-06T08:16:47.833Z,6.63
2022-09-06T08:19:14.755Z,6.68
2022-09-06T08:21:41.694Z,5.57
2022-09-06T08:24:10.242Z,6.75
2022-09-06T08:26:43.055Z,5.82
2022-09-06T08:29:11.061Z,6.55
2022-09-06T08:31:39.635Z,6.18
2022-09-06T08:34:07.127Z,6.32
2022-09-06T08:36:35.086Z,6.45
2022-09-06T08:39:03.711Z,7.53
2022-09-06T08:41:33.721Z,6.95
2022-09-06T08:47:00.190Z,5.13
2022-09-06T08:49:30.145Z,6.70
2022-09-06T08:51:57.315Z,5.75
2022-09-06T08:54:24.441Z,5.95
2022-09-06T08:56:57.541Z,6.15
2022-09-06T08:59:24.683Z,5.60
2022-09-06T09:01:51.919Z,5.93
2022-09-06T09:04:22.209Z,7.13
2022-09-06T09:06:52.749Z,7.57
2022-09-06T09:09:19.894Z,6.38
2022-09-06T09:11:48.369Z,6.75
2022-09-06T09:14:15.501Z,6.57
2022-09-06T09:16:43.127Z,6.68
2022-09-06T09:19:10.180Z,6.47
2022-09-06T09:21:40.010Z,9.18
2022-09-06T09:24:11.774Z,7.00
2022-09-06T09:26:51.972Z,6.47
2022-09-06T09:29:22.762Z,5.60
2022-09-06T09:31:56.199Z,6.03
2022-09-06T09:34:33.846Z,9.60
2022-09-06T09:40:32.016Z,7.20
2022-09-06T09:43:15.214Z,6.40
2022-09-06T09:45:43.318Z,5.38
2022-09-06T09:48:28.298Z,6.90
2022-09-06T09:50:56.585Z,5.32
2022-09-06T09:53:24.318Z,10.88
2022-09-06T09:55:58.448Z,7.53
2022-09-06T09:58:33.421Z,5.75
2022-09-06T10:01:30.642Z,6.28
2022-09-06T10:07:13.084Z,5.60
2022-09-06T10:09:43.803Z,6.13
2022-09-06T10:12:18.018Z,7.40
2022-09-06T10:14:48.580Z,7.03
2022-09-06T10:17:20.820Z,6.55
2022-09-06T10:19:48.734Z,6.75
2022-09-06T10:22:21.396Z,7.75
2022-09-06T10:24:58.965Z,7.50
2022-09-06T10:27:28.987Z,10.88
2022-09-06T10:30:06.846Z,7.25
2022-09-06T10:32:45.948Z,9.32
2022-09-06T10:35:17.012Z,8.87
2022-09-06T10:38:01.734Z,8.70
2022-09-06T10:40:38.490Z,7.37
2022-09-06T10:43:08.740Z,9.10
2022-09-06T10:45:44.186Z,7.10
2022-09-06T10:48:15.040Z,9.63
2022-09-06T10:50:43.872Z,9.47
2022-09-06T10:53:23.052Z,8.30
2022-09-06T10:55:53.408Z,9.60
2022-09-06T10:58:25.867Z,9.20
2022-09-06T11:00:54.093Z,9.00
2022-09-06T11:06:20.727Z,9.27
2022-09-06T11:08:58.497Z,8.07
2022-09-06T11:11:45.962Z,7.90
2022-09-06T11:14:13.935Z,7.83
2022-09-06T11:16:53.864Z,9.57
2022-09-06T11:19:47.484Z,8.50
2022-09-06T11:22:34.876Z,8.80
2022-09-06T11:25:01.984Z,8.40
2022-09-06T11:27:35.847Z,9.03
2022-09-06T11:30:05.779Z,9.70
2022-09-06T11:32:38.834Z,10.30
2022-09-06T11:35:20.412Z,11.33
2022-09-06T11:37:51.508Z,9.43
2022-09-06T11:40:27.128Z,8.83
2022-09-06T11:42:55.515Z,9.50
2022-09-06T11:45:40.153Z,9.10
2022-09-06T11:48:26.273Z,11.60
2022-09-06T11:51:01.950Z,12.03
2022-09-06T11:53:36.330Z,10.20
2022-09-06T11:56:03.200Z,12.30
2022-09-06T11:58:41.875Z,8.97
2022-09-06T12:01:18.771Z,10.33
2022-09-06T12:04:05.152Z,9.07
2022-09-06T12:06:43.744Z,8.60
2022-09-06T12:09:33.346Z,10.43
2022-09-06T12:12:01.294Z,8.83
2022-09-06T12:14:40.999Z,12.67
2022-09-06T12:17:08.797Z,10.13
2022-09-06T12:19:47.407Z,8.40
2022-09-06T12:22:29.476Z,10.43
2022-09-06T12:25:34.198Z,9.67
2022-09-06T12:28:04.055Z,9.03
2022-09-06T12:30:46.138Z,13.43
2022-09-06T12:33:26.037Z,8.40
2022-09-06T12:35:56.421Z,8.23
2022-09-06T12:38:25.447Z,9.50
2022-09-06T12:40:58.254Z,8.90
2022-09-06T12:43:25.980Z,8.90
2022-09-06T12:45:53.245Z,9.10
2022-09-06T12:48:29.782Z,7.70
2022-09-06T12:51:04.346Z,10.03
2022-09-06T12:53:32.024Z,9.20
2022-09-06T12:56:06.721Z,8.83
2022-09-06T12:58:34.458Z,9.27
2022-09-06T13:01:07.785Z,7.83
2022-09-06T13:03:41.231Z,8.67
2022-09-06T13:06:08.763Z,8.33
2022-09-06T13:08:39.292Z,8.63
2022-09-06T13:11:10.572Z,8.50
2022-09-06T13:13:37.855Z,9.70
2022-09-06T13:16:05.090Z,8.00
2022-09-06T13:18:36.851Z,9.27
2022-09-06T13:21:06.048Z,7.87
2022-09-06T13:23:44.142Z,8.87
2022-09-06T13:26:11.341Z,9.63
2022-09-06T13:28:38.814Z,10.00
2022-09-06T13:31:14.963Z,9.43
2022-09-06T13:33:42.296Z,9.47
2022-09-06T13:36:12.496Z,9.23
2022-09-06T13:38:42.746Z,9.30
2022-09-06T13:41:25.310Z,9.67
2022-09-06T13:44:11.285Z,10.40
2022-09-06T13:46:38.532Z,9.67
2022-09-06T13:49:06.150Z,10.07
2022-09-06T13:51:34.080Z,8.47
2022-09-06T13:54:08.601Z,8.60
2022-09-06T13:56:35.978Z,10.27
2022-09-06T13:59:03.773Z,9.30
2022-09-06T14:01:31.172Z,8.50
2022-09-06T14:03:58.392Z,9.43
2022-09-06T14:06:25.171Z,11.83
2022-09-06T14:09:08.581Z,8.00
2022-09-06T14:11:36.111Z,8.70
2022-09-06T14:14:03.008Z,9.97
2022-09-06T14:16:30.083Z,9.07
2022-09-06T14:18:57.002Z,9.10
2022-09-06T14:21:23.998Z,9.33
2022-09-06T14:23:52.284Z,8.73
2022-09-06T14:26:21.001Z,8.30
2022-09-06T14:28:48.058Z,8.37
2022-09-06T14:31:20.522Z,8.27
2022-09-06T14:33:47.697Z,7.90
2022-09-06T14:36:20.228Z,8.23
2022-09-06T14:38:47.718Z,9.27
2022-09-06T14:41:16.069Z,9.80
2022-09-06T14:43:44.169Z,8.30
2022-09-06T14:46:14.198Z,8.93
2022-09-06T14:48:42.668Z,8.87
2022-09-06T14:51:21.838Z,8.50
2022-09-06T14:53:51.951Z,8.77
2022-09-06T14:56:19.966Z,9.57
2022-09-06T14:58:47.243Z,8.30
2022-09-06T15:01:17.861Z,8.40
2022-09-06T15:03:48.464Z,8.50
2022-09-06T15:06:16.347Z,8.03
2022-09-06T15:08:43.344Z,8.80
2022-09-06T15:11:12.514Z,8.60
2022-09-06T15:13:40.404Z,8.50
2022-09-06T15:16:09.237Z,8.73
2022-09-06T15:18:36.506Z,9.37
2022-09-06T15:21:14.500Z,8.97
2022-09-06T15:23:43.015Z,7.47
2022-09-06T15:26:12.063Z,8.40
2022-09-06T15:28:40.470Z,9.70
2022-09-06T15:31:08.585Z,8.30
2022-09-06T15:33:37.186Z,8.80
2022-09-06T15:36:08.078Z,8.47
2022-09-06T15:38:57.474Z,8.90
2022-09-06T15:41:27.078Z,8.30
2022-09-06T15:43:56.777Z,8.93
2022-09-06T15:46:35.686Z,8.40
2022-09-06T15:49:06.340Z,8.00
2022-09-06T15:51:34.206Z,8.90
2022-09-06T15:54:01.775Z,8.67
2022-09-06T15:56:28.893Z,8.20
2022-09-06T15:58:55.738Z,8.40
2022-09-06T16:01:25.245Z,8.50
2022-09-06T16:03:54.809Z,8.63
2022-09-06T16:08:56.056Z,8.67
2022-09-06T16:11:22.795Z,9.80
2022-09-06T16:13:49.572Z,7.77
2022-09-06T16:16:17.747Z,10.90
2022-09-06T16:18:48.664Z,8.43
2022-09-06T16:21:18.843Z,8.23
2022-09-06T16:23:59.273Z,7.90
2022-09-06T16:26:28.964Z,7.80
2022-09-06T16:28:55.978Z,7.77
2022-09-06T16:31:23.699Z,8.40
2022-09-06T16:33:51.057Z,8.07
2022-09-06T16:36:18.851Z,7.47
2022-09-06T16:38:46.610Z,12.23
2022-09-06T16:41:26.605Z,6.60
2022-09-06T16:43:54.199Z,7.10
2022-09-06T16:46:25.665Z,9.33
2022-09-06T16:48:53.616Z,7.37
2022-09-06T16:51:22.274Z,7.43
2022-09-06T16:53:49.588Z,6.00
2022-09-06T16:56:18.933Z,6.30
2022-09-06T16:58:51.388Z,7.93
2022-09-06T17:01:18.471Z,6.67
2022-09-06T17:03:45.636Z,6.00
2022-09-06T17:06:13.154Z,6.50
2022-09-06T17:08:40.076Z,7.00
2022-09-06T17:11:14.700Z,8.80
2022-09-06T17:13:42.624Z,6.67
2022-09-06T17:16:27.922Z,6.67
2022-09-06T17:18:54.923Z,5.83
2022-09-06T17:21:22.979Z,6.27
2022-09-06T17:23:50.622Z,5.00
2022-09-06T17:26:22.133Z,11.10
2022-09-06T17:28:50.018Z,6.90
2022-09-06T17:31:21.114Z,7.17
2022-09-06T17:33:52.840Z,5.83
2022-09-06T17:36:25.271Z,5.80
2022-09-06T17:38:53.685Z,5.30
2022-09-06T17:41:20.864Z,6.00
2022-09-06T17:43:48.566Z,5.30
2022-09-06T17:46:15.407Z,5.67
2022-09-06T17:48:43.508Z,8.03
2022-09-06T17:51:11.594Z,5.40
2022-09-06T17:53:38.916Z,5.77
2022-09-06T17:56:08.104Z,6.07
2022-09-06T17:58:36.633Z,6.30
2022-09-06T18:01:23.624Z,7.50
2022-09-06T18:03:50.594Z,5.50
2022-09-06T18:06:25.453Z,7.63
2022-09-06T18:08:54.372Z,7.10
2022-09-06T18:11:32.982Z,6.60
2022-09-06T18:14:11.840Z,6.10
2022-09-06T18:16:40.455Z,9.07
2022-09-06T18:19:08.988Z,5.33
2022-09-06T18:21:38.788Z,7.37
2022-09-06T18:24:06.522Z,9.17
2022-09-06T18:26:33.752Z,5.60
2022-09-06T18:29:01.110Z,5.30
2022-09-06T18:31:28.801Z,6.67
2022-09-06T18:33:58.892Z,6.80
2022-09-06T18:36:31.146Z,5.50
2022-09-06T18:39:02.951Z,5.77
2022-09-06T18:41:49.125Z,6.27
2022-09-06T18:44:17.100Z,5.70
2022-09-06T18:46:44.739Z,6.53
2022-09-06T18:49:14.197Z,5.80
2022-09-06T18:51:41.192Z,5.23
2022-09-06T18:54:08.316Z,5.40
2022-09-06T18:56:35.188Z,5.10
2022-09-06T18:59:02.217Z,5.40
2022-09-06T19:01:30.415Z,5.60
2022-09-06T19:03:58.500Z,5.07
2022-09-06T19:06:27.399Z,5.47
2022-09-06T19:08:55.155Z,5.30
2022-09-06T19:11:22.353Z,5.90
2022-09-06T19:13:54.749Z,5.20
2022-09-06T19:16:23.353Z,5.23
2022-09-06T19:18:50.981Z,5.33
2022-09-06T19:21:22.143Z,5.30
2022-09-06T19:23:57.450Z,4.73
2022-09-06T19:26:25.616Z,5.13
2022-09-06T19:28:58.526Z,4.83
2022-09-06T19:31:27.397Z,5.50
2022-09-06T19:33:55.558Z,5.13
2022-09-06T19:36:24.068Z,5.40
2022-09-06T19:39:04.121Z,5.17
2022-09-06T19:41:32.672Z,5.00
2022-09-06T19:44:00.214Z,5.47
2022-09-06T19:46:28.146Z,5.57
2022-09-06T19:48:56.386Z,5.30
2022-09-06T19:51:24.253Z,5.70
2022-09-06T19:53:57.621Z,5.67
2022-09-06T19:56:26.484Z,4.87
2022-09-06T19:58:58.279Z,5.23
2022-09-06T20:01:26.585Z,5.70
2022-09-06T20:03:53.991Z,5.20
2022-09-06T20:06:22.410Z,7.10
2022-09-06T20:08:53.787Z,7.70
2022-09-06T20:11:21.720Z,6.20
2022-09-06T20:13:49.228Z,6.33
2022-09-06T20:16:19.318Z,6.30
2022-09-06T20:18:47.686Z,5.13
2022-09-06T20:21:15.054Z,4.90
2022-09-06T20:23:42.262Z,5.97
2022-09-06T20:26:11.507Z,5.53
2022-09-06T20:28:38.754Z,6.07
2022-09-06T20:31:07.392Z,7.23
2022-09-06T20:33:35.160Z,7.07
2022-09-06T20:36:06.396Z,7.10
2022-09-06T20:38:34.876Z,6.40
2022-09-06T20:41:09.391Z,6.57
2022-09-06T20:43:37.193Z,5.80
2022-09-06T20:46:05.449Z,6.53
2022-09-06T20:48:33.304Z,6.13
2022-09-06T20:51:02.130Z,6.67
2022-09-06T20:53:29.872Z,6.07
2022-09-06T20:55:57.831Z,6.13
2022-09-06T20:58:25.276Z,6.50
2022-09-06T21:00:52.632Z,6.83
2022-09-06T21:03:19.820Z,6.70
2022-09-06T21:05:47.411Z,6.57
2022-09-06T21:08:14.973Z,6.17
2022-09-06T21:10:42.705Z,6.07
2022-09-06T21:13:10.332Z,6.20
2022-09-06T21:15:38.894Z,7.17
2022-09-06T21:18:06.078Z,5.77
2022-09-06T21:20:33.250Z,6.00
2022-09-06T21:23:00.379Z,7.20
2022-09-06T21:25:27.929Z,7.90
2022-09-06T21:27:55.982Z,5.73
2022-09-06T21:30:23.293Z,6.40
2022-09-06T21:32:53.546Z,6.37
2022-09-06T21:35:20.728Z,6.07
2022-09-06T21:37:47.860Z,6.60
2022-09-06T21:40:15.198Z,5.90
2022-09-06T21:42:42.347Z,8.00
2022-09-06T21:45:09.709Z,7.10
2022-09-06T21:47:38.226Z,6.83
2022-09-06T21:50:05.574Z,7.50
2022-09-06T21:52:32.755Z,6.33
2022-09-06T21:55:00.048Z,6.60
2022-09-06T21:57:27.201Z,7.30
2022-09-06T21:59:54.359Z,6.00
2022-09-06T22:02:21.925Z,6.67
2022-09-06T22:04:50.617Z,6.47
2022-09-06T22:07:17.815Z,7.33
2022-09-06T22:09:45.157Z,6.70
2022-09-06T22:12:12.619Z,7.03
2022-09-06T22:14:39.824Z,6.17
2022-09-06T22:17:07.105Z,9.50
2022-09-06T22:19:34.256Z,9.30
2022-09-06T22:22:01.388Z,6.33
2022-09-06T22:24:29.031Z,6.83
2022-09-06T22:26:56.204Z,6.87
2022-09-06T22:29:23.389Z,7.07
2022-09-06T22:31:50.588Z,7.10
2022-09-06T22:34:17.831Z,8.27
2022-09-06T22:36:45.005Z,8.37
2022-09-06T22:39:12.158Z,7.80
2022-09-06T22:41:39.341Z,7.07
2022-09-06T22:44:07.216Z,6.70
2022-09-06T22:46:34.466Z,7.43
2022-09-06T22:49:02.539Z,7.70
2022-09-06T22:51:29.672Z,6.90
2022-09-06T22:53:56.797Z,8.50
2022-09-06T22:56:24.508Z,7.50
2022-09-06T22:58:51.783Z,7.63
2022-09-06T23:01:19.096Z,8.07
2022-09-06T23:03:48.137Z,7.00
2022-09-06T23:06:15.330Z,7.50
2022-09-06T23:08:42.788Z,6.97
2022-09-06T23:11:11.755Z,7.10
2022-09-06T23:13:39.048Z,7.33
2022-09-06T23:16:07.038Z,7.93
2022-09-06T23:18:34.251Z,8.07
2022-09-06T23:21:07.420Z,7.83
2022-09-06T23:23:35.238Z,7.40
2022-09-06T23:26:06.555Z,7.90
2022-09-06T23:28:33.791Z,7.20
2022-09-06T23:31:04.863Z,8.23
2022-09-06T23:33:35.087Z,7.97
2022-09-06T23:36:02.439Z,8.17
2022-09-06T23:38:29.758Z,7.40
2022-09-06T23:40:56.996Z,7.80
2022-09-06T23:43:24.226Z,7.87
2022-09-06T23:45:51.460Z,7.47
2022-09-06T23:48:18.682Z,8.13
2022-09-06T23:50:46.326Z,7.53
2022-09-06T23:53:14.112Z,8.73
2022-09-06T23:55:41.676Z,7.67
2022-09-06T23:58:09.008Z,8.30
